Time;durP1;ratioP1;P1;durP2;ratioP2;P2;SDS_P1;SDS_P2;PMS_P1;PMS_P2;Temp;Humidity;BMP_temperature;BMP_pressure;BME280_temperature;BME280_humidity;BME280_pressure;Samples;Min_cycle;Max_cycle;Signal;HPM_P1;HPM_P2
2023/09/18 00:00:08;;;;;;;;;;;25.70;70.00;;;25.94;44.88;98043.38;4938455;28;119367;-82
2023/09/18 00:02:35;;;;;;;;;;;25.70;70.20;;;25.93;44.98;98035.31;4922559;28;118907;-81
2023/09/18 00:05:01;;;;;;;;;;;25.70;70.30;;;25.91;44.99;98032.91;4938526;28;124466;-82
2023/09/18 00:07:27;;;;;;;;;;;25.70;70.30;;;25.90;44.72;98034.16;4919110;28;123865;-82
2023/09/18 00:09:54;;;;;;;;;;;26.20;70.80;;;25.88;44.81;98039.44;4927601;28;119469;-82
2023/09/18 00:12:20;;;;;;;;;;;25.60;70.50;;;25.88;44.73;98039.44;4936634;28;118389;-82
2023/09/18 00:14:50;;;;;;;;;;;25.60;70.70;;;25.86;45.31;98039.09;4939165;28;124022;-82
2023/09/18 00:17:19;;;;;;;;;;;25.60;70.90;;;25.84;45.45;98038.72;4927315;28;122830;-82
2023/09/18 00:19:46;;;;;;;;;;;25.60;71.00;;;25.84;45.33;98026.59;4928432;28;118644;-82
2023/09/18 00:22:12;;;;;;;;;;;25.50;71.10;;;25.81;45.17;98028.22;4931391;28;118748;-82
2023/09/18 00:24:38;;;;;;;;;;;25.60;71.30;;;25.78;45.40;98012.13;4932145;28;124570;-82
2023/09/18 00:27:07;;;;;;;;;;;25.50;71.30;;;25.79;45.43;98025.03;4939867;28;124530;-82
2023/09/18 00:29:33;;;;;;;;;;;25.50;71.40;;;25.77;45.04;98010.53;4945828;28;120823;-82
2023/09/18 00:32:02;;;;;;;;;;;25.50;71.50;;;25.76;45.34;98014.59;4939707;28;118983;-82
2023/09/18 00:34:31;;;;;;;;;;;25.50;71.70;;;25.74;45.41;98002.91;4924557;28;123854;-81
2023/09/18 00:36:59;;;;;;;;;;;25.50;71.80;;;25.71;45.18;98006.59;4944736;28;124379;-81
2023/09/18 00:39:26;;;;;;;;;;;25.50;71.90;;;25.69;45.31;97994.94;4907480;28;117347;-81
2023/09/18 00:41:54;;;;;;;;;;;25.40;71.90;;;25.69;45.33;97997.75;4935100;28;118506;-81
2023/09/18 00:44:24;;;;;;;;;;;25.50;72.00;;;25.67;45.68;98005.88;4949425;28;124238;-81
2023/09/18 00:46:51;;;;;;;;;;;25.40;72.00;;;25.66;45.48;97995.81;4917518;28;123757;-82
2023/09/18 00:49:18;;;;;;;;;;;25.40;72.20;;;25.65;45.80;97997.03;4948322;28;119255;-81
2023/09/18 00:51:44;;;;;;;;;;;25.40;72.30;;;25.64;45.59;97992.59;4927476;28;118812;-81
2023/09/18 00:54:11;;;;;;;;;;;25.40;72.50;;;25.64;45.78;97995.44;4919063;28;124473;-80
2023/09/18 00:56:37;;;;;;;;;;;25.40;72.50;;;25.62;45.72;97986.56;4955020;28;124001;-82
2023/09/18 00:59:03;;;;;;;;;;;25.30;72.60;;;25.60;45.43;97995.47;4922122;28;118782;-82
2023/09/18 01:01:31;;;;;;;;;;;25.30;72.70;;;25.60;45.45;97991.84;4947810;28;118746;-81
2023/09/18 01:03:58;;;;;;;;;;;25.30;72.80;;;25.59;45.47;97979.75;4935054;28;124385;-82
2023/09/18 01:06:27;;;;;;;;;;;25.30;72.90;;;25.59;45.65;97971.25;4916389;28;123132;-81
2023/09/18 01:08:54;;;;;;;;;;;25.30;73.10;;;25.55;45.87;97977.00;4963689;28;119713;-81
2023/09/18 01:11:31;;;;;;;;;;;25.30;73.20;;;25.48;45.85;97968.63;4934535;28;118769;-81
2023/09/18 01:14:00;;;;;;;;;;;25.20;73.20;;;25.44;46.14;97970.75;4947813;28;123651;-81
2023/09/18 01:16:39;;;;;;;;;;;25.20;73.30;;;25.40;45.99;97970.00;4940033;28;123708;-81
2023/09/18 01:19:08;;;;;;;;;;;25.20;73.40;;;25.39;45.94;97973.25;4950005;28;120654;-81
2023/09/18 01:21:35;;;;;;;;;;;25.20;73.50;;;25.39;46.37;97968.41;4930926;28;119909;-81
2023/09/18 01:24:01;;;;;;;;;;;25.20;73.70;;;25.40;45.99;97984.16;4928588;28;124526;-81
2023/09/18 01:26:28;;;;;;;;;;;25.10;73.80;;;25.37;45.96;97979.34;4916237;28;124080;-81
2023/09/18 01:28:54;;;;;;;;;;;25.10;73.80;;;25.32;45.93;97975.00;4948178;28;119943;-81
2023/09/18 01:31:20;;;;;;;;;;;25.10;73.80;;;25.31;46.26;97983.94;4947263;28;118733;-81
2023/09/18 01:33:47;;;;;;;;;;;25.10;73.90;;;25.31;46.06;97986.75;4925864;28;124142;-82
2023/09/18 01:36:14;;;;;;;;;;;25.10;74.00;;;25.27;46.17;97972.66;4962472;28;123971;-81
2023/09/18 01:38:42;;;;;;;;;;;25.00;74.10;;;25.27;45.87;97971.88;4963040;28;119425;-81
2023/09/18 01:41:09;;;;;;;;;;;24.90;74.10;;;25.27;46.09;97978.31;4960689;28;119404;-81
2023/09/18 01:43:35;;;;;;;;;;;24.90;74.20;;;25.27;46.44;97972.66;4940073;28;123593;-81
2023/09/18 01:46:05;;;;;;;;;;;24.90;74.40;;;25.26;46.15;97987.25;4940934;28;124010;-81
2023/09/18 01:48:31;;;;;;;;;;;24.90;74.30;;;25.28;46.06;98058.28;4926645;28;118475;-81
2023/09/18 01:50:58;;;;;;;;;;;24.90;74.50;;;25.23;46.03;98051.09;4947148;28;118729;-81
2023/09/18 01:53:26;;;;;;;;;;;24.90;74.80;;;25.19;46.29;98049.56;4947425;28;124168;-81
2023/09/18 01:55:52;;;;;;;;;;;24.80;74.80;;;25.17;46.59;98030.19;4946346;28;123921;-82
2023/09/18 01:58:21;;;;;;;;;;;24.80;75.00;;;25.15;46.20;98021.34;4919510;28;119877;-81
2023/09/18 02:00:50;;;;;;;;;;;24.80;74.80;;;25.17;46.40;97998.28;4918740;28;118819;-82
2023/09/18 02:03:18;;;;;;;;;;;24.90;74.90;;;25.20;45.97;98003.91;4924887;28;123037;-82
2023/09/18 02:05:44;;;;;;;;;;;24.90;74.70;;;25.22;46.09;97992.94;4938201;28;124074;-82
2023/09/18 02:08:10;;;;;;;;;;;24.90;74.60;;;25.23;46.38;97965.50;4914115;28;122162;-82
2023/09/18 02:10:36;;;;;;;;;;;24.90;75.10;;;25.23;46.79;97949.31;4905007;28;119825;-82
2023/09/18 02:13:03;;;;;;;;;;;24.90;75.60;;;25.22;46.92;97918.63;4921767;28;124464;-81
2023/09/18 02:15:32;;;;;;;;;;;24.90;76.00;;;25.21;46.84;97888.78;4917262;28;124409;-82
2023/09/18 02:18:00;;;;;;;;;;;24.90;76.10;;;25.20;46.94;97882.34;4922967;28;119975;-82
2023/09/18 02:20:27;;;;;;;;;;;24.90;76.20;;;25.23;47.36;97900.47;4912539;28;117687;-81
2023/09/18 02:22:53;;;;;;;;;;;24.90;76.30;;;25.24;47.13;97902.84;4924856;28;124299;-81
2023/09/18 02:25:19;;;;;;;;;;;24.90;76.60;;;25.24;47.18;97899.22;4926644;28;123620;-82
2023/09/18 02:27:49;;;;;;;;;;;24.90;76.70;;;25.25;47.71;97921.38;4927230;28;121166;-82
2023/09/18 02:30:16;;;;;;;;;;;24.90;77.10;;;25.22;47.81;97916.59;4926127;28;118828;-81
2023/09/18 02:32:42;;;;;;;;;;;24.90;77.40;;;25.23;47.65;97914.59;4909323;28;124500;-82
2023/09/18 02:35:08;;;;;;;;;;;24.90;77.60;;;25.23;48.13;97908.94;4922864;28;122853;-81
2023/09/18 02:37:37;;;;;;;;;;;24.90;77.70;;;25.25;48.16;97917.78;4927316;28;120760;-82
2023/09/18 02:40:05;;;;;;;;;;;24.90;77.90;;;25.21;47.98;97922.72;4926169;28;119202;-82
2023/09/18 02:42:31;;;;;;;;;;;24.90;78.00;;;25.13;48.07;97931.28;4919532;28;124443;-82
2023/09/18 02:44:59;;;;;;;;;;;24.90;78.10;;;25.05;48.11;97934.69;4926873;28;123930;-82
2023/09/18 02:47:26;;;;;;;;;;;24.80;78.30;;;24.97;47.99;97948.13;4920413;28;119374;-82
2023/09/18 02:49:52;;;;;;;;;;;24.80;78.00;;;24.94;46.88;97957.47;4907397;28;118567;-82
2023/09/18 02:52:18;;;;;;;;;;;24.70;77.00;;;24.91;46.90;97944.22;4921172;28;124077;-82
2023/09/18 02:54:44;;;;;;;;;;;24.60;76.70;;;24.87;47.11;97940.63;4926837;28;124013;-82
2023/09/18 02:57:11;;;;;;;;;;;24.60;76.50;;;24.84;46.90;97938.66;4922390;28;120236;-82
2023/09/18 02:59:37;;;;;;;;;;;24.60;76.50;;;24.82;46.77;97941.13;4930444;28;119653;-81
2023/09/18 03:02:03;;;;;;;;;;;24.50;76.50;;;24.81;46.87;97933.88;4924006;28;123116;-82
2023/09/18 03:04:31;;;;;;;;;;;24.50;76.50;;;24.82;47.16;97941.13;4945850;28;124732;-82
2023/09/18 03:06:57;;;;;;;;;;;24.60;76.60;;;24.83;47.00;97957.66;4923334;28;119526;-82
2023/09/18 03:09:23;;;;;;;;;;;24.60;76.60;;;24.85;46.90;97948.72;4896755;28;118103;-82
2023/09/18 03:11:52;;;;;;;;;;;24.60;76.60;;;24.87;47.02;97952.72;4928569;28;123937;-80
2023/09/18 03:14:21;;;;;;;;;;;24.60;76.60;;;24.90;46.74;97962.38;4944243;28;124314;-82
2023/09/18 03:16:47;;;;;;;;;;;24.60;76.80;;;24.90;47.13;97965.19;4928500;28;119526;-81
2023/09/18 03:19:14;;;;;;;;;;;24.60;77.10;;;24.83;47.46;97943.53;4941149;28;118687;-82
2023/09/18 03:21:40;;;;;;;;;;;24.50;77.50;;;24.79;47.24;97947.63;4938643;28;124648;-81
2023/09/18 03:24:07;;;;;;;;;;;24.50;77.40;;;24.77;47.17;97944.44;4922916;28;124017;-82
2023/09/18 03:26:33;;;;;;;;;;;24.50;77.30;;;24.75;47.49;97947.69;4935287;28;118968;-82
2023/09/18 03:28:59;;;;;;;;;;;24.50;77.30;;;24.75;47.34;97949.72;4923771;28;118238;-82
2023/09/18 03:31:25;;;;;;;;;;;24.50;77.60;;;24.75;47.33;97964.66;4922294;28;124647;-82
2023/09/18 03:33:52;;;;;;;;;;;24.50;77.60;;;24.75;47.73;97963.84;4940058;28;123882;-82
2023/09/18 03:36:21;;;;;;;;;;;24.50;77.70;;;24.76;47.74;97971.88;4937074;28;119851;-82
2023/09/18 03:38:48;;;;;;;;;;;24.50;77.80;;;24.79;47.53;97981.53;4946686;28;118783;-82
2023/09/18 03:41:14;;;;;;;;;;;24.50;77.80;;;24.80;47.46;97983.16;4944761;28;124160;-82
2023/09/18 03:43:43;;;;;;;;;;;24.50;77.90;;;24.80;47.46;97988.81;4945697;28;124013;-82
2023/09/18 03:46:12;;;;;;;;;;;24.50;77.80;;;24.80;47.54;98011.41;4944752;28;120577;-82
2023/09/18 03:48:43;;;;;;;;;;;24.50;77.80;;;24.76;47.95;98033.25;4945403;28;120099;-81
2023/09/18 03:51:09;;;;;;;;;;;24.50;78.10;;;24.69;47.86;98045.47;4945603;28;123351;-82
2023/09/18 03:53:36;;;;;;;;;;;24.40;78.30;;;24.63;48.10;98058.44;4932231;28;124707;-82
2023/09/18 03:56:03;;;;;;;;;;;24.40;78.50;;;24.58;47.99;98068.22;4945239;28;118767;-82
2023/09/18 03:58:29;;;;;;;;;;;24.40;78.90;;;24.55;48.71;98076.72;4938173;28;118785;-82
2023/09/18 04:00:55;;;;;;;;;;;24.30;79.00;;;24.52;48.53;98086.03;4947627;28;124390;-82
2023/09/18 04:03:22;;;;;;;;;;;24.30;79.30;;;24.50;49.07;98089.28;4936355;28;123466;-82
2023/09/18 04:05:48;;;;;;;;;;;24.30;79.60;;;24.50;49.05;98085.66;4930968;28;119968;-82
2023/09/18 04:08:14;;;;;;;;;;;24.30;79.90;;;24.51;48.79;98078.81;4947244;28;118764;-82
2023/09/18 04:10:40;;;;;;;;;;;24.30;80.00;;;24.51;48.87;98078.81;4935541;28;124023;-82
2023/09/18 04:13:08;;;;;;;;;;;24.30;80.00;;;24.51;49.06;98073.16;4936042;28;124309;-81
2023/09/18 04:15:37;;;;;;;;;;;24.30;79.90;;;24.51;48.59;98056.22;4949596;28;121548;-82
2023/09/18 04:18:06;;;;;;;;;;;24.30;79.90;;;24.52;48.48;98060.63;4949329;28;118699;-82
2023/09/18 04:20:33;;;;;;;;;;;24.20;79.80;;;24.53;48.19;98051.75;4947552;28;124064;-82
2023/09/18 04:23:37;;;;;;;;;;;24.30;79.80;;;24.51;48.36;98045.72;4942117;28;124135;-82
2023/09/18 04:26:03;;;;;;;;;;;24.20;79.90;;;24.54;48.77;98033.56;4886023;28;119644;-82
2023/09/18 04:28:30;;;;;;;;;;;24.20;80.10;;;24.55;48.91;98023.84;4889576;28;117718;-82
2023/09/18 04:30:56;;;;;;;;;;;24.20;81.20;;;24.54;48.76;98015.81;4867278;28;124893;-81
2023/09/18 04:33:23;;;;;;;;;;;24.20;80.70;;;24.54;49.03;98018.66;4866010;28;124223;-83
2023/09/18 04:35:49;;;;;;;;;;;24.20;80.70;;;24.52;48.84;97990.81;4899850;28;119442;-82
2023/09/18 04:38:16;;;;;;;;;;;24.20;80.90;;;24.53;49.12;97975.50;4885225;28;119275;-82
2023/09/18 04:40:45;;;;;;;;;;;24.20;80.90;;;24.56;48.97;97939.94;4886059;28;123826;-82
2023/09/18 04:43:17;;;;;;;;;;;24.20;81.10;;;24.56;49.17;97939.94;4880835;28;123191;-82
2023/09/18 04:45:47;;;;;;;;;;;24.30;81.40;;;24.58;49.07;97960.06;4887894;28;119628;-82
2023/09/18 04:48:13;;;;;;;;;;;24.20;81.40;;;24.59;49.12;97956.81;4873438;28;118720;-82
2023/09/18 04:50:46;;;;;;;;;;;24.20;81.50;;;24.60;49.13;97940.66;4884382;28;124247;-81
2023/09/18 04:53:13;;;;;;;;;;;24.30;81.70;;;24.59;49.50;97937.06;4886206;28;123985;-81
2023/09/18 04:55:41;;;;;;;;;;;24.20;81.90;;;24.59;49.49;97956.03;4884522;28;119556;-81
2023/09/18 04:58:07;;;;;;;;;;;24.30;82.30;;;24.57;49.74;97956.44;4933377;28;118229;-82
2023/09/18 05:00:34;;;;;;;;;;;24.30;82.50;;;24.57;50.08;97976.22;4931034;28;123786;-82
2023/09/18 05:03:01;;;;;;;;;;;24.30;82.80;;;24.52;49.84;97982.34;4939761;28;124534;-81
2023/09/18 05:05:29;;;;;;;;;;;24.20;82.90;;;24.51;50.31;97982.78;4942881;28;119682;-82
2023/09/18 05:07:55;;;;;;;;;;;24.30;83.10;;;24.51;49.85;97972.28;4923492;28;118823;-81
2023/09/18 05:10:21;;;;;;;;;;;24.20;83.10;;;24.50;50.15;97965.00;4957899;28;123505;-82
2023/09/18 05:12:49;;;;;;;;;;;24.20;83.50;;;24.50;50.49;97956.53;4901547;28;123009;-82
2023/09/18 05:15:15;;;;;;;;;;;24.20;83.60;;;24.52;50.54;97950.47;4947146;28;118655;-82
2023/09/18 05:17:46;;;;;;;;;;;24.20;83.70;;;24.55;50.44;97950.41;4913247;28;117532;-84
2023/09/18 05:20:15;;;;;;;;;;;24.20;83.80;;;24.57;50.33;97962.09;4950006;28;123398;-77
2023/09/18 05:22:44;;;;;;;;;;;24.20;83.90;;;24.60;50.22;97975.34;4943337;28;123754;-77
2023/09/18 05:25:11;;;;;;;;;;;24.20;84.10;;;24.60;49.82;98005.63;4932272;28;120619;-78
2023/09/18 05:27:44;;;;;;;;;;;24.20;84.00;;;24.59;50.09;98023.81;4929317;28;119775;-77
2023/09/18 05:30:15;;;;;;;;;;;24.20;84.10;;;24.56;50.07;98022.66;4928053;28;124173;-78
2023/09/18 05:32:47;;;;;;;;;;;24.20;84.10;;;24.52;50.23;97990.81;4931748;28;123008;-81
2023/09/18 05:35:16;;;;;;;;;;;24.20;84.00;;;24.51;50.30;97992.06;4939138;28;118596;-78
2023/09/18 05:37:43;;;;;;;;;;;24.20;84.10;;;24.49;49.99;97991.66;4922625;28;118580;-79
2023/09/18 05:40:11;;;;;;;;;;;24.20;84.20;;;24.44;50.20;98001.41;4935728;28;125152;-78
2023/09/18 05:42:46;;;;;;;;;;;24.20;84.10;;;24.46;49.83;98009.47;4928519;28;123703;-78
2023/09/18 05:45:13;;;;;;;;;;;24.20;84.20;;;24.44;49.96;97990.13;4933557;28;119595;-77
2023/09/18 05:47:40;;;;;;;;;;;24.10;84.10;;;24.42;49.89;98003.84;4922280;28;119126;-78
2023/09/18 05:50:07;;;;;;;;;;;24.10;84.00;;;24.41;50.36;98007.09;4941049;28;124304;-78
2023/09/18 05:52:34;;;;;;;;;;;24.10;84.00;;;24.37;50.39;98012.78;4935922;28;124251;-78
2023/09/18 05:55:01;;;;;;;;;;;24.10;84.20;;;24.35;50.33;98014.44;4949005;28;119539;-78
2023/09/18 05:57:28;;;;;;;;;;;24.00;84.20;;;24.32;50.17;98004.78;4926384;28;117784;-79
2023/09/18 05:59:59;;;;;;;;;;;24.00;84.30;;;24.31;50.29;97996.75;4948620;28;124278;-78
2023/09/18 06:02:25;;;;;;;;;;;24.00;85.20;;;24.32;50.39;98001.19;4936785;28;123489;-78
2023/09/18 06:04:59;;;;;;;;;;;24.00;84.70;;;24.31;50.42;98000.34;4941040;28;120341;-78
2023/09/18 06:07:26;;;;;;;;;;;24.00;84.70;;;24.23;50.79;97985.56;4957545;28;118154;-83
2023/09/18 06:09:53;;;;;;;;;;;23.90;84.90;;;24.16;50.93;97985.66;4927935;28;124385;-77
2023/09/18 06:12:23;;;;;;;;;;;23.90;85.20;;;24.12;51.02;97972.81;4948542;28;123296;-79
2023/09/18 06:14:49;;;;;;;;;;;23.90;85.40;;;24.14;51.03;97973.97;4942323;28;120082;-79
2023/09/18 06:17:18;;;;;;;;;;;23.90;85.50;;;24.21;50.92;97973.88;4948833;28;120601;-78
2023/09/18 06:19:47;;;;;;;;;;;23.90;85.70;;;24.23;50.99;97979.91;4910889;28;124247;-76
2023/09/18 06:22:14;;;;;;;;;;;23.90;85.60;;;24.22;50.87;97974.69;4946377;28;125652;-80
2023/09/18 06:24:41;;;;;;;;;;;23.90;85.70;;;24.23;51.08;97987.56;4947209;28;119244;-79
2023/09/18 06:27:11;;;;;;;;;;;23.90;85.70;;;24.24;51.12;97992.78;4946264;28;118293;-79
2023/09/18 06:29:41;;;;;;;;;;;23.90;85.90;;;24.20;51.37;97992.03;4932282;28;123628;-80
2023/09/18 06:32:07;;;;;;;;;;;23.90;86.30;;;24.16;51.38;97984.84;4947645;28;123220;-79
2023/09/18 06:34:54;;;;;;;;;;;23.90;86.40;;;24.12;51.54;97996.16;4923816;28;118007;-77
2023/09/18 06:37:20;;;;;;;;;;;23.90;86.60;;;24.07;51.87;97987.38;4869503;28;117997;-76
2023/09/18 06:39:47;;;;;;;;;;;23.80;86.70;;;24.07;52.24;97988.19;4864006;28;122617;-76
2023/09/18 06:42:13;;;;;;;;;;;23.90;87.50;;;24.04;51.84;97980.56;4866651;28;123197;-76
2023/09/18 06:44:39;;;;;;;;;;;23.80;87.60;;;24.01;52.74;98006.81;4879742;28;119560;-76
2023/09/18 06:47:06;;;;;;;;;;;23.70;88.00;;;24.00;52.54;98010.84;4870352;28;118773;-76
2023/09/18 06:49:32;;;;;;;;;;;23.70;88.40;;;24.01;52.64;98012.44;4885770;28;123244;-76
2023/09/18 06:51:58;;;;;;;;;;;23.70;88.70;;;24.02;52.70;98014.06;4883979;28;123724;-78
2023/09/18 06:54:27;;;;;;;;;;;23.70;88.90;;;24.02;53.03;98019.72;4869686;28;118819;-76
2023/09/18 06:56:54;;;;;;;;;;;23.70;89.20;;;23.98;53.54;98018.94;4885029;28;118903;-78
2023/09/18 06:59:20;;;;;;;;;;;23.70;89.90;;;23.94;53.45;98015.38;4866376;28;123828;-77
2023/09/18 07:01:46;;;;;;;;;;;23.60;90.00;;;23.89;53.68;98005.34;4860278;28;124225;-77
2023/09/18 07:04:13;;;;;;;;;;;23.60;90.10;;;23.87;53.72;98010.59;4883569;28;120644;-76
2023/09/18 07:06:39;;;;;;;;;;;23.60;90.20;;;23.85;54.09;98015.06;4881762;28;119867;-77
2023/09/18 07:09:06;;;;;;;;;;;23.60;90.40;;;23.79;54.19;98018.34;4873304;28;124257;-77
2023/09/18 07:11:33;;;;;;;;;;;23.50;90.50;;;23.74;54.22;98010.34;4885005;28;124195;-78
2023/09/18 07:14:01;;;;;;;;;;;23.50;90.60;;;23.73;54.50;98007.97;4896059;28;118530;-78
2023/09/18 07:16:27;;;;;;;;;;;23.50;90.70;;;23.71;54.65;98008.38;4944342;28;119642;-79
2023/09/18 07:18:53;;;;;;;;;;;23.50;90.80;;;23.73;54.54;98005.94;4941669;28;124140;-78
2023/09/18 07:21:22;;;;;;;;;;;23.50;91.00;;;23.74;54.81;98003.91;4924261;28;122952;-77
2023/09/18 07:23:48;;;;;;;;;;;23.50;91.10;;;23.74;54.45;97993.41;4934853;28;119360;-78
2023/09/18 07:26:17;;;;;;;;;;;23.50;91.10;;;23.72;54.38;97989.41;4955656;28;117050;-78
2023/09/18 07:28:44;;;;;;;;;;;23.40;91.00;;;23.69;53.79;98002.31;4941571;28;122975;-78
2023/09/18 07:31:14;;;;;;;;;;;23.40;90.80;;;23.67;53.63;98004.78;4933596;28;123635;-79
2023/09/18 07:33:43;;;;;;;;;;;23.40;90.60;;;23.64;53.37;97999.16;4926528;28;119466;-80
2023/09/18 07:36:14;;;;;;;;;;;23.30;90.50;;;23.63;52.97;98008.84;4932648;28;117914;-79
2023/09/18 07:38:43;;;;;;;;;;;23.30;90.20;;;23.57;52.60;98011.31;4927563;28;123229;-78
2023/09/18 07:41:09;;;;;;;;;;;23.30;90.00;;;23.54;52.28;98020.63;4915346;28;124020;-78
2023/09/18 07:43:36;;;;;;;;;;;23.30;89.60;;;23.50;52.28;98022.66;4924764;28;117659;-79
2023/09/18 07:49:39;;;;;;;;;;;23.20;90.00;;;23.43;52.20;98056.56;4933023;28;124697;-77
2023/09/18 07:52:05;;;;;;;;;;;23.10;89.50;;;23.42;52.43;98080.34;4929367;28;124084;-78
2023/09/18 07:54:36;;;;;;;;;;;23.10;89.60;;;23.40;52.31;98069.50;4915858;28;120520;-78
2023/09/18 07:57:03;;;;;;;;;;;23.10;89.70;;;23.41;52.17;98059.81;4925141;28;121134;-82
2023/09/18 07:59:31;;;;;;;;;;;23.10;89.50;;;23.40;52.62;98063.03;4927585;28;123062;-79
2023/09/18 08:01:58;;;;;;;;;;;23.10;89.70;;;23.42;52.46;98066.25;4945826;28;123753;-79
2023/09/18 08:04:26;;;;;;;;;;;23.10;89.70;;;23.45;52.36;98071.03;4920460;28;119366;-81
2023/09/18 08:06:53;;;;;;;;;;;23.10;89.60;;;23.49;52.53;98071.81;4935406;28;118393;-82
2023/09/18 08:09:19;;;;;;;;;;;23.20;89.70;;;23.56;52.07;98080.19;4942796;28;124186;-80
2023/09/18 08:11:49;;;;;;;;;;;23.20;89.60;;;23.61;52.04;98091.03;4946706;28;123303;-82
2023/09/18 08:14:18;;;;;;;;;;;23.20;89.40;;;23.61;51.92;98088.22;4920268;28;121345;-81
2023/09/18 08:16:46;;;;;;;;;;;23.30;89.30;;;23.63;51.51;98093.44;4914458;28;117721;-82
2023/09/18 08:19:16;;;;;;;;;;;23.20;89.00;;;23.62;51.68;98095.47;4930187;28;123690;-82
2023/09/18 08:21:46;;;;;;;;;;;23.30;88.90;;;23.60;51.58;98106.38;4927433;28;123377;-83
2023/09/18 08:24:14;;;;;;;;;;;23.30;88.80;;;23.58;51.66;98118.03;4922083;28;119213;-80
2023/09/18 08:26:41;;;;;;;;;;;23.20;88.70;;;23.59;51.54;98130.16;4923822;28;117202;-80
2023/09/18 08:29:10;;;;;;;;;;;23.20;88.70;;;23.58;51.50;98142.63;4943249;28;124207;-80
2023/09/18 08:31:36;;;;;;;;;;;23.20;88.70;;;23.56;51.62;98156.34;4922285;28;123637;-81
2023/09/18 08:34:05;;;;;;;;;;;23.20;88.80;;;23.58;51.66;98151.09;4914414;28;120248;-79
2023/09/18 08:36:33;;;;;;;;;;;23.20;88.70;;;23.58;51.80;98148.28;4945362;28;117968;-80
2023/09/18 08:39:00;;;;;;;;;;;23.30;88.90;;;23.60;51.86;98137.38;4916020;28;124208;-80
2023/09/18 08:41:30;;;;;;;;;;;23.30;89.00;;;23.62;51.90;98149.06;4936668;28;123852;-79
2023/09/18 08:44:00;;;;;;;;;;;23.30;89.40;;;23.60;52.34;98148.66;4913910;28;120329;-79
2023/09/18 08:46:29;;;;;;;;;;;23.20;89.50;;;23.55;52.73;98155.53;4943265;28;119515;-80
2023/09/18 08:48:55;;;;;;;;;;;23.20;90.00;;;23.52;52.82;98156.38;4914542;28;124148;-80
2023/09/18 08:51:22;;;;;;;;;;;23.20;90.10;;;23.51;53.10;98154.00;4924139;28;124134;-80
2023/09/18 08:53:49;;;;;;;;;;;23.20;90.20;;;23.49;53.20;98150.78;4956378;28;119209;-80
2023/09/18 08:56:17;;;;;;;;;;;23.20;90.20;;;23.46;53.22;98157.25;4954568;28;119355;-80
2023/09/18 08:58:43;;;;;;;;;;;23.20;90.30;;;23.45;53.36;98144.34;4915599;28;123879;-80
2023/09/18 09:01:10;;;;;;;;;;;23.20;90.40;;;23.43;53.39;98146.78;4943386;28;123585;-80
2023/09/18 09:03:39;;;;;;;;;;;23.20;90.40;;;23.44;53.55;98154.03;4923354;28;119882;-80
2023/09/18 09:06:09;;;;;;;;;;;23.20;90.50;;;23.46;53.59;98154.44;4951185;28;118065;-80
2023/09/18 09:08:36;;;;;;;;;;;23.20;90.60;;;23.48;53.62;98166.06;4923373;28;124883;-81
2023/09/18 09:11:03;;;;;;;;;;;23.20;90.70;;;23.46;54.02;98168.53;4947710;28;124391;-80
2023/09/18 09:13:29;;;;;;;;;;;23.20;90.80;;;23.44;54.24;98176.59;4927839;28;119373;-89
2023/09/18 09:15:57;;;;;;;;;;;23.20;91.00;;;23.41;54.15;98183.06;4945929;28;117732;-82
2023/09/18 09:18:29;;;;;;;;;;;23.10;90.90;;;23.35;54.09;98180.69;4950306;28;124104;-82
2023/09/18 09:21:04;;;;;;;;;;;23.10;91.00;;;23.34;54.42;98179.06;4927643;28;124636;-82
2023/09/18 09:23:56;;;;;;;;;;;23.10;91.10;;;23.30;54.53;98172.66;4954239;28;120359;-82
2023/09/18 09:26:25;;;;;;;;;;;23.10;91.30;;;23.29;55.01;98176.72;4930428;28;117841;-80
2023/09/18 09:28:53;;;;;;;;;;;23.00;91.40;;;23.29;55.40;98165.44;4924030;28;124235;-81
2023/09/18 09:31:30;;;;;;;;;;;23.00;91.80;;;23.24;55.63;98157.41;4910662;28;123174;-82
2023/09/18 09:33:58;;;;;;;;;;;23.00;91.90;;;23.20;55.90;98167.91;4956175;28;121022;-79
2023/09/18 09:36:26;;;;;;;;;;;23.00;92.10;;;23.13;56.13;98184.84;4927681;28;118952;-81
2023/09/18 09:38:59;;;;;;;;;;;22.90;92.20;;;23.07;56.06;98172.41;4938282;28;124950;-82
2023/09/18 09:41:27;;;;;;;;;;;22.90;92.20;;;23.03;56.63;98169.63;4920795;28;123085;-82
2023/09/18 09:43:54;;;;;;;;;;;22.90;92.40;;;23.04;56.63;98165.56;4929471;28;118801;-84
2023/09/18 09:46:21;;;;;;;;;;;22.90;92.50;;;23.05;56.92;98164.38;4938708;28;118937;-83
2023/09/18 09:49:02;;;;;;;;;;;22.80;92.80;;;23.06;56.81;98168.00;4926791;28;123529;-84
2023/09/18 09:51:29;;;;;;;;;;;22.80;92.80;;;23.08;56.41;98157.91;4926780;28;123494;-82
2023/09/18 09:53:58;;;;;;;;;;;22.90;92.80;;;23.11;56.58;98150.66;4935128;28;119383;-81
2023/09/18 09:56:48;;;;;;;;;;;22.80;92.70;;;23.12;56.21;98160.69;4952875;28;118570;-83
2023/09/18 09:59:18;;;;;;;;;;;22.90;92.70;;;23.13;56.37;98153.84;4905809;28;123270;-82
2023/09/18 10:01:51;;;;;;;;;;;22.80;92.60;;;23.13;56.51;98151.84;4927110;28;124216;-82
2023/09/18 10:04:19;;;;;;;;;;;22.90;92.80;;;23.17;56.45;98159.47;4930053;28;118994;-82
2023/09/18 10:07:02;;;;;;;;;;;22.90;92.80;;;23.16;56.32;98161.50;4932742;28;119098;-82
2023/09/18 10:09:29;;;;;;;;;;;22.90;92.80;;;23.17;56.49;98168.72;4915884;28;124465;-83
2023/09/18 10:11:59;;;;;;;;;;;22.90;92.80;;;23.18;56.19;98163.88;4926178;28;124076;-82
2023/09/18 10:14:31;;;;;;;;;;;22.90;92.70;;;23.18;56.66;98170.31;4928054;28;119255;-82
2023/09/18 10:17:00;;;;;;;;;;;22.90;93.00;;;23.17;56.84;98170.75;4918919;28;118830;-82
2023/09/18 10:19:54;;;;;;;;;;;22.90;93.00;;;23.16;56.93;98175.59;4925961;28;124367;-83
2023/09/18 10:22:22;;;;;;;;;;;22.90;93.30;;;23.17;56.81;98198.94;4938013;28;123866;-82
2023/09/18 10:24:50;;;;;;;;;;;22.80;93.30;;;23.17;56.52;98229.94;4934565;28;120630;-82
2023/09/18 10:27:21;;;;;;;;;;;22.80;93.30;;;23.17;56.85;98229.94;4921499;28;119580;-82
2023/09/18 10:29:49;;;;;;;;;;;22.90;93.30;;;23.18;56.79;98225.88;4934980;28;123495;-82
2023/09/18 10:32:15;;;;;;;;;;;22.90;93.30;;;23.19;56.96;98227.50;4920384;28;123988;-82
2023/09/18 10:34:43;;;;;;;;;;;22.90;93.40;;;23.21;56.69;98230.69;4940035;28;118144;-83
2023/09/18 10:37:09;;;;;;;;;;;22.90;93.40;;;23.26;56.96;98228.25;4928531;28;119132;-83
2023/09/18 10:39:39;;;;;;;;;;;22.90;93.50;;;23.27;57.00;98235.50;4936543;28;123687;-82
2023/09/18 10:42:09;;;;;;;;;;;23.20;93.60;;;23.26;56.96;98228.25;4923519;28;123355;-83
2023/09/18 10:44:39;;;;;;;;;;;22.90;93.50;;;23.22;57.09;98233.13;4929857;28;119395;-82
2023/09/18 10:47:06;;;;;;;;;;;22.90;93.50;;;23.21;57.48;98237.13;4927768;28;120677;-83
2023/09/18 10:49:35;;;;;;;;;;;22.80;93.60;;;23.22;57.70;98221.03;4941432;28;124241;-83
2023/09/18 10:52:01;;;;;;;;;;;22.90;93.70;;;23.19;57.64;98217.03;4929266;28;123415;-83
2023/09/18 10:54:28;;;;;;;;;;;22.90;93.80;;;23.17;57.53;98196.91;4956573;28;120219;-83
2023/09/18 10:56:55;;;;;;;;;;;22.90;93.80;;;23.10;57.25;98196.94;4939945;28;118930;-82
2023/09/18 10:59:22;;;;;;;;;;;22.80;93.70;;;23.09;57.32;98192.53;4923278;28;124552;-82
2023/09/18 11:01:52;;;;;;;;;;;22.80;93.70;;;23.08;57.30;98186.09;4913231;28;122810;-83
2023/09/18 11:04:19;;;;;;;;;;;22.80;93.70;;;23.07;57.22;98186.50;4913503;28;119841;-83
2023/09/18 11:06:55;;;;;;;;;;;22.80;93.70;;;23.04;57.34;98171.22;4947037;28;119779;-81
2023/09/18 11:09:28;;;;;;;;;;;22.80;93.70;;;23.03;57.37;98171.63;4939309;28;124771;-79
2023/09/18 11:12:02;;;;;;;;;;;22.80;93.80;;;23.00;57.62;98175.25;4916398;28;123688;-78
2023/09/18 11:14:49;;;;;;;;;;;22.70;93.80;;;22.98;57.65;98178.50;4942362;28;120487;-78
2023/09/18 11:17:38;;;;;;;;;;;22.70;93.80;;;23.00;57.62;98192.16;4944892;28;119954;-78